createdAt,value
2019-04-14T00:02:01.046Z,28.60
2019-04-14T00:04:36.029Z,29.13
2019-04-14T00:07:06.395Z,28.77
2019-04-14T00:09:36.077Z,28.83
2019-04-14T00:12:07.574Z,29.90
2019-04-14T00:14:38.260Z,27.47
2019-04-14T00:17:08.730Z,27.23
2019-04-14T00:19:39.180Z,28.50
2019-04-14T00:22:09.604Z,27.70
2019-04-14T00:24:38.866Z,27.30
2019-04-14T00:27:08.570Z,25.03
2019-04-14T00:29:39.249Z,25.93
2019-04-14T00:32:09.543Z,25.57
2019-04-14T00:35:10.378Z,25.90
2019-04-14T00:37:59.804Z,23.77
2019-04-14T00:40:35.400Z,24.63
2019-04-14T00:43:24.458Z,25.17
2019-04-14T00:46:02.219Z,24.17
2019-04-14T00:48:32.042Z,23.77
2019-04-14T00:51:02.778Z,23.20
2019-04-14T00:53:33.900Z,23.50
2019-04-14T00:56:04.051Z,23.50
2019-04-14T00:58:34.312Z,22.93
2019-04-14T01:01:04.824Z,22.40
2019-04-14T01:03:35.159Z,22.27
2019-04-14T01:06:05.416Z,23.47
2019-04-14T01:08:35.722Z,23.03
2019-04-14T01:11:05.331Z,23.27
2019-04-14T01:13:35.426Z,22.27
2019-04-14T01:16:12.183Z,23.37
2019-04-14T01:18:36.709Z,24.03
2019-04-14T01:21:06.698Z,23.00
2019-04-14T01:23:36.922Z,23.57
2019-04-14T01:26:07.202Z,23.30
2019-04-14T01:28:37.484Z,21.60
2019-04-14T01:31:07.670Z,22.03
2019-04-14T01:33:37.955Z,22.07
2019-04-14T01:36:08.080Z,22.80
2019-04-14T01:38:38.437Z,21.53
2019-04-14T01:41:08.965Z,22.37
2019-04-14T01:43:38.849Z,22.30
2019-04-14T01:46:16.149Z,22.63
2019-04-14T01:48:39.010Z,22.40
2019-04-14T01:51:37.419Z,21.13
2019-04-14T01:54:30.945Z,22.13
2019-04-14T01:57:18.173Z,21.20
2019-04-14T01:59:48.264Z,20.43
2019-04-14T02:02:20.781Z,21.00
2019-04-14T02:04:50.723Z,21.27
2019-04-14T02:07:21.205Z,21.33
2019-04-14T02:09:51.071Z,21.00
2019-04-14T02:12:21.439Z,20.87
2019-04-14T02:14:51.660Z,21.60
2019-04-14T02:17:22.044Z,20.57
2019-04-14T02:19:52.423Z,20.40
2019-04-14T02:22:22.374Z,20.70
2019-04-14T02:24:52.850Z,20.23
2019-04-14T02:27:23.162Z,22.37
2019-04-14T02:29:53.841Z,19.47
2019-04-14T02:32:49.498Z,19.70
2019-04-14T02:35:21.476Z,20.73
2019-04-14T02:37:55.479Z,21.20
2019-04-14T02:40:27.328Z,20.67
2019-04-14T02:43:16.816Z,22.13
2019-04-14T02:45:32.305Z,23.73
2019-04-14T02:48:11.953Z,23.70
2019-04-14T02:50:24.520Z,24.77
2019-04-14T02:53:01.583Z,23.73
2019-04-14T02:55:31.913Z,25.27
2019-04-14T02:58:14.274Z,25.97
2019-04-14T03:03:10.230Z,25.50
2019-04-14T03:05:44.722Z,24.70
2019-04-14T03:08:08.423Z,23.67
2019-04-14T03:10:40.425Z,22.57
2019-04-14T03:13:15.424Z,24.27
2019-04-14T03:15:53.784Z,23.70
2019-04-14T03:21:48.800Z,23.73
2019-04-14T03:24:27.312Z,24.00
2019-04-14T03:27:06.298Z,22.77
2019-04-14T03:29:37.066Z,23.07
2019-04-14T03:34:52.440Z,20.47
2019-04-14T03:37:37.793Z,22.63
2019-04-14T03:42:19.776Z,21.00
2019-04-14T03:47:19.664Z,20.63
2019-04-14T03:49:45.113Z,19.73
2019-04-14T03:52:27.014Z,20.20
2019-04-14T03:54:44.380Z,19.53
2019-04-14T03:56:57.737Z,17.93
2019-04-14T03:59:28.222Z,17.67
2019-04-14T04:01:58.613Z,17.33
2019-04-14T04:04:27.983Z,17.47
2019-04-14T04:06:58.051Z,18.03
2019-04-14T04:09:32.550Z,17.20
2019-04-14T04:12:03.117Z,16.40
2019-04-14T04:14:33.451Z,15.97
2019-04-14T04:17:18.956Z,16.47
2019-04-14T04:20:13.513Z,17.00
2019-04-14T04:23:05.221Z,16.20
2019-04-14T04:25:55.615Z,17.10
2019-04-14T04:28:45.078Z,14.97
2019-04-14T04:31:34.971Z,16.17
2019-04-14T04:34:12.194Z,16.57
2019-04-14T04:37:06.408Z,15.47
2019-04-14T04:39:39.682Z,16.33
2019-04-14T04:42:09.777Z,16.97
2019-04-14T04:44:40.096Z,15.47
2019-04-14T04:47:09.921Z,17.03
2019-04-14T04:49:40.518Z,15.83
2019-04-14T04:52:12.698Z,15.73
2019-04-14T04:54:42.747Z,15.73
2019-04-14T04:57:13.183Z,15.07
2019-04-14T04:59:43.491Z,15.13
2019-04-14T05:02:13.443Z,15.67
2019-04-14T05:04:43.820Z,15.83
2019-04-14T05:07:14.372Z,15.80
2019-04-14T05:10:02.649Z,15.67
2019-04-14T05:12:48.022Z,15.93
2019-04-14T05:15:40.316Z,14.53
2019-04-14T05:18:13.922Z,15.10
2019-04-14T05:20:44.150Z,14.27
2019-04-14T05:23:14.767Z,15.70
2019-04-14T05:25:45.242Z,13.77
2019-04-14T05:28:15.559Z,14.60
2019-04-14T05:30:45.842Z,15.30
2019-04-14T05:33:16.270Z,13.20
2019-04-14T05:35:46.669Z,14.77
2019-04-14T05:38:16.912Z,14.00
2019-04-14T05:40:47.499Z,14.07
2019-04-14T05:43:28.244Z,13.70
2019-04-14T05:45:48.175Z,15.53
2019-04-14T05:48:18.256Z,13.77
2019-04-14T05:50:49.028Z,14.17
2019-04-14T05:53:19.603Z,13.10
2019-04-14T05:55:48.884Z,14.53
2019-04-14T05:58:18.580Z,14.53
2019-04-14T06:00:50.544Z,13.03
2019-04-14T06:03:19.642Z,12.97
2019-04-14T06:05:48.909Z,13.90
2019-04-14T06:08:18.170Z,13.17
2019-04-14T06:10:47.368Z,13.03
2019-04-14T06:13:16.959Z,13.30
2019-04-14T06:15:46.678Z,13.60
2019-04-14T06:18:15.952Z,13.97
2019-04-14T06:20:45.436Z,13.03
2019-04-14T06:23:15.069Z,12.73
2019-04-14T06:25:44.658Z,12.70
2019-04-14T06:28:14.269Z,12.03
2019-04-14T06:31:02.786Z,12.63
2019-04-14T06:34:00.629Z,13.20
2019-04-14T06:36:47.388Z,11.67
2019-04-14T06:39:22.773Z,12.43
2019-04-14T06:41:52.370Z,12.70
2019-04-14T06:44:22.211Z,13.37
2019-04-14T06:46:51.893Z,12.77
2019-04-14T06:49:21.790Z,12.87
2019-04-14T06:51:51.682Z,13.30
2019-04-14T06:54:21.293Z,12.43
2019-04-14T06:56:51.228Z,12.57
2019-04-14T06:59:20.819Z,12.57
2019-04-14T07:01:50.007Z,13.13
2019-04-14T07:04:19.720Z,13.07
2019-04-14T07:06:51.278Z,13.73
2019-04-14T07:09:20.263Z,14.33
2019-04-14T07:11:49.620Z,13.53
2019-04-14T07:14:18.873Z,13.33
2019-04-14T07:16:51.232Z,12.97
2019-04-14T07:19:19.843Z,13.50
2019-04-14T07:21:49.116Z,14.67
2019-04-14T07:24:18.957Z,13.33
2019-04-14T07:26:48.205Z,13.87
2019-04-14T07:29:17.577Z,13.90
2019-04-14T07:32:04.481Z,14.27
2019-04-14T07:34:52.210Z,14.13
2019-04-14T07:37:40.659Z,13.97
2019-04-14T07:40:46.915Z,14.27
2019-04-14T07:43:39.686Z,13.47
2019-04-14T07:46:26.532Z,12.37
2019-04-14T07:49:13.552Z,13.17
2019-04-14T07:52:04.855Z,11.87
2019-04-14T07:54:41.403Z,12.50
2019-04-14T07:57:22.016Z,12.40
2019-04-14T08:00:02.547Z,11.67
2019-04-14T08:02:52.127Z,12.30
2019-04-14T08:05:28.973Z,11.30
2019-04-14T08:07:58.622Z,12.10
2019-04-14T08:10:28.023Z,11.60
2019-04-14T08:12:57.341Z,11.93
2019-04-14T08:15:26.669Z,13.43
2019-04-14T08:17:56.264Z,14.60
2019-04-14T08:20:27.643Z,14.30
2019-04-14T08:22:58.446Z,13.20
2019-04-14T08:25:28.155Z,12.93
2019-04-14T08:27:57.820Z,12.30
2019-04-14T08:30:27.336Z,13.37
2019-04-14T08:32:56.974Z,12.20
2019-04-14T08:35:26.681Z,12.60
2019-04-14T08:37:56.422Z,12.23
2019-04-14T08:40:26.029Z,12.37
2019-04-14T08:43:12.259Z,12.47
2019-04-14T08:45:54.987Z,12.70
2019-04-14T08:48:46.620Z,12.80
2019-04-14T08:51:38.264Z,11.97
2019-04-14T08:54:33.631Z,12.20
2019-04-14T08:57:16.585Z,11.77
2019-04-14T09:00:04.622Z,12.03
2019-04-14T09:02:53.450Z,11.93
2019-04-14T09:05:40.827Z,11.03
2019-04-14T09:08:23.877Z,10.70
2019-04-14T09:10:57.477Z,11.70
2019-04-14T09:13:26.890Z,11.90
2019-04-14T09:15:56.656Z,12.43
2019-04-14T09:18:26.163Z,10.87
2019-04-14T09:20:55.958Z,11.50
2019-04-14T09:23:25.726Z,11.13
2019-04-14T09:25:55.672Z,11.50
2019-04-14T09:28:25.876Z,10.63
2019-04-14T09:30:55.954Z,10.60
2019-04-14T09:33:25.341Z,10.63
2019-04-14T09:35:55.252Z,11.23
2019-04-14T09:38:24.565Z,10.93
2019-04-14T09:40:54.041Z,10.80
2019-04-14T09:43:23.922Z,12.20
2019-04-14T09:45:53.845Z,10.07
2019-04-14T09:48:23.210Z,11.00
2019-04-14T09:51:04.127Z,11.13
2019-04-14T09:53:24.233Z,11.30
2019-04-14T09:55:53.921Z,11.07
2019-04-14T09:58:24.040Z,10.33
2019-04-14T10:00:53.693Z,9.67
2019-04-14T10:03:23.248Z,10.73
2019-04-14T10:05:52.564Z,10.53
2019-04-14T10:08:21.901Z,11.30
2019-04-14T10:10:51.591Z,10.67
2019-04-14T10:13:21.474Z,10.27
2019-04-14T10:15:51.279Z,10.73
2019-04-14T10:18:20.662Z,10.43
2019-04-14T10:20:50.412Z,10.57
2019-04-14T10:23:20.231Z,10.57
2019-04-14T10:25:49.981Z,10.87
2019-04-14T10:28:19.431Z,10.87
2019-04-14T10:30:49.415Z,10.57
2019-04-14T10:33:19.195Z,10.03
2019-04-14T10:35:48.885Z,10.37
2019-04-14T10:38:18.603Z,10.07
2019-04-14T10:40:48.019Z,9.67
2019-04-14T10:43:17.658Z,8.70
2019-04-14T10:45:47.484Z,9.77
2019-04-14T10:48:16.941Z,9.30
2019-04-14T10:50:46.274Z,9.27
2019-04-14T10:53:16.017Z,9.87
2019-04-14T10:55:45.464Z,9.37
2019-04-14T10:58:15.525Z,8.97
2019-04-14T11:00:45.521Z,8.33
2019-04-14T11:03:14.959Z,9.80
2019-04-14T11:05:50.065Z,8.37
2019-04-14T11:08:19.571Z,9.70
2019-04-14T11:10:49.599Z,8.43
2019-04-14T11:13:19.876Z,8.43
2019-04-14T11:15:49.351Z,8.73
2019-04-14T11:18:19.076Z,8.23
2019-04-14T11:20:48.980Z,8.73
2019-04-14T11:23:18.525Z,8.60
2019-04-14T11:25:47.824Z,8.33
2019-04-14T11:28:17.931Z,8.83
2019-04-14T11:30:47.625Z,8.77
2019-04-14T11:33:36.319Z,8.50
2019-04-14T11:36:24.632Z,8.70
2019-04-14T11:38:59.404Z,8.70
2019-04-14T11:41:28.720Z,9.50
2019-04-14T11:43:58.365Z,8.40
2019-04-14T11:46:28.804Z,8.00
2019-04-14T11:49:01.152Z,8.43
2019-04-14T11:51:30.618Z,8.30
2019-04-14T11:54:00.141Z,8.43
2019-04-14T11:56:29.483Z,8.30
2019-04-14T11:58:59.353Z,8.17
2019-04-14T12:01:48.049Z,8.73
2019-04-14T12:04:25.245Z,8.37
2019-04-14T12:07:16.820Z,8.50
2019-04-14T12:10:00.561Z,8.67
2019-04-14T12:12:29.962Z,9.20
2019-04-14T12:14:59.866Z,7.60
2019-04-14T12:17:29.520Z,7.60
2019-04-14T12:19:58.808Z,8.20
2019-04-14T12:22:28.409Z,7.57
2019-04-14T12:24:57.924Z,8.13
2019-04-14T12:27:27.714Z,7.63
2019-04-14T12:29:58.917Z,7.40
2019-04-14T12:32:29.194Z,7.73
2019-04-14T12:34:58.642Z,7.83
2019-04-14T12:37:28.354Z,7.47
2019-04-14T12:39:57.853Z,6.93
2019-04-14T12:42:52.678Z,7.23
2019-04-14T12:45:40.187Z,7.97
2019-04-14T12:48:28.836Z,7.00
2019-04-14T12:51:08.016Z,6.93
2019-04-14T12:53:37.303Z,7.57
2019-04-14T12:56:07.247Z,7.70
2019-04-14T12:58:54.852Z,7.70
2019-04-14T13:01:25.181Z,7.30
2019-04-14T13:03:54.440Z,7.40
2019-04-14T13:06:23.779Z,7.53
2019-04-14T13:08:53.338Z,7.07
2019-04-14T13:11:23.242Z,6.90
2019-04-14T13:13:52.885Z,7.13
2019-04-14T13:16:22.444Z,6.63
2019-04-14T13:18:51.824Z,7.40
2019-04-14T13:21:21.235Z,6.53
2019-04-14T13:23:51.413Z,6.70
2019-04-14T13:26:21.055Z,7.23
2019-04-14T13:28:50.667Z,6.80
2019-04-14T13:31:20.008Z,7.13
2019-04-14T13:33:49.736Z,7.07
2019-04-14T13:36:19.299Z,6.70
2019-04-14T13:38:48.725Z,6.80
2019-04-14T13:41:18.843Z,6.90
2019-04-14T13:43:48.147Z,6.83
2019-04-14T13:46:18.366Z,7.00
2019-04-14T13:48:47.964Z,6.40
2019-04-14T13:51:17.626Z,6.33
2019-04-14T13:53:46.906Z,7.10
2019-04-14T13:56:17.043Z,7.37
2019-04-14T13:58:46.655Z,7.30
2019-04-14T14:01:15.987Z,7.13
2019-04-14T14:03:45.741Z,7.47
2019-04-14T14:06:15.326Z,7.57
2019-04-14T14:08:44.652Z,6.43
2019-04-14T14:11:23.866Z,7.03
2019-04-14T14:14:08.184Z,7.67
2019-04-14T14:16:59.757Z,7.30
2019-04-14T14:19:40.381Z,7.63
2019-04-14T14:22:25.863Z,7.37
2019-04-14T14:25:11.315Z,7.80
2019-04-14T14:27:41.276Z,7.93
2019-04-14T14:30:12.145Z,7.73
2019-04-14T14:32:41.498Z,7.97
2019-04-14T14:35:11.200Z,7.53
2019-04-14T14:37:40.922Z,7.77
2019-04-14T14:40:10.484Z,7.30
2019-04-14T14:42:39.871Z,7.10
2019-04-14T14:45:34.075Z,6.90
2019-04-14T14:48:25.918Z,7.57
2019-04-14T14:51:23.214Z,8.00
2019-04-14T14:53:53.816Z,7.00
2019-04-14T14:56:23.628Z,6.70
2019-04-14T14:58:53.380Z,7.27
2019-04-14T15:01:23.039Z,7.67
2019-04-14T15:03:52.587Z,7.43
2019-04-14T15:06:22.181Z,7.00
2019-04-14T15:08:51.853Z,7.33
2019-04-14T15:11:21.234Z,6.93
2019-04-14T15:13:51.007Z,7.17
2019-04-14T15:16:20.719Z,6.77
2019-04-14T15:18:50.031Z,7.70
2019-04-14T15:21:19.656Z,7.07
2019-04-14T15:23:49.483Z,7.20
2019-04-14T15:26:19.401Z,7.10
2019-04-14T15:28:49.350Z,7.17
2019-04-14T15:31:20.066Z,6.50
2019-04-14T15:33:49.465Z,7.53
2019-04-14T15:36:19.216Z,8.03
2019-04-14T15:38:49.192Z,7.70
2019-04-14T15:41:18.602Z,7.30
2019-04-14T15:43:47.999Z,7.67
2019-04-14T15:46:17.643Z,6.47
2019-04-14T15:48:47.578Z,6.67
2019-04-14T15:51:17.714Z,6.90
2019-04-14T15:53:47.418Z,7.93
2019-04-14T15:56:28.412Z,7.17
2019-04-14T15:59:11.675Z,7.50
2019-04-14T16:01:54.054Z,7.70
2019-04-14T16:04:31.713Z,7.17
2019-04-14T16:07:25.932Z,6.67
2019-04-14T16:10:14.208Z,7.73
2019-04-14T16:12:51.385Z,8.40
2019-04-14T16:15:38.436Z,14.13
2019-04-14T16:18:26.653Z,9.07
2019-04-14T16:20:56.010Z,9.50
2019-04-14T16:23:26.150Z,6.90
2019-04-14T16:26:04.547Z,7.30
2019-04-14T16:28:39.712Z,6.87
2019-04-14T16:31:18.368Z,5.53
2019-04-14T16:34:05.810Z,6.23
2019-04-14T16:36:35.535Z,6.27
2019-04-14T16:39:06.119Z,6.40
2019-04-14T16:41:35.718Z,6.07
2019-04-14T16:44:05.173Z,5.73
2019-04-14T16:46:34.507Z,5.80
2019-04-14T16:49:04.288Z,5.40
2019-04-14T16:51:40.328Z,6.20
2019-04-14T16:54:34.713Z,5.90
2019-04-14T16:57:29.150Z,6.37
2019-04-14T16:59:59.175Z,5.77
2019-04-14T17:02:29.319Z,6.33
2019-04-14T17:04:58.690Z,6.20
2019-04-14T17:07:28.206Z,5.90
2019-04-14T17:09:57.698Z,6.30
2019-04-14T17:12:27.222Z,6.97
2019-04-14T17:15:15.564Z,6.43
2019-04-14T17:18:22.396Z,6.17
2019-04-14T17:21:11.075Z,6.80
2019-04-14T17:23:48.089Z,7.13
2019-04-14T17:26:25.716Z,6.47
2019-04-14T17:29:16.526Z,6.87
2019-04-14T17:32:09.181Z,6.47
2019-04-14T17:35:01.836Z,6.00
2019-04-14T17:37:53.597Z,6.17
2019-04-14T17:40:41.923Z,6.17
2019-04-14T17:43:16.349Z,6.60
2019-04-14T17:46:07.410Z,7.10
2019-04-14T17:48:53.842Z,6.60
2019-04-14T17:51:28.911Z,6.37
2019-04-14T17:54:29.104Z,6.73
2019-04-14T17:57:04.778Z,7.17
2019-04-14T17:59:42.172Z,6.90
2019-04-14T18:02:28.615Z,7.37
2019-04-14T18:05:06.914Z,7.10
2019-04-14T18:08:04.150Z,7.27
2019-04-14T18:10:49.865Z,7.77
2019-04-14T18:13:32.464Z,8.00
2019-04-14T18:16:05.979Z,7.83
2019-04-14T18:18:57.018Z,7.87
2019-04-14T18:21:26.253Z,7.97
2019-04-14T18:23:56.000Z,8.53
2019-04-14T18:26:25.723Z,9.27
2019-04-14T18:29:26.806Z,8.03
2019-04-14T18:32:17.220Z,9.57
2019-04-14T18:34:55.555Z,8.40
2019-04-14T18:37:34.856Z,9.40
2019-04-14T18:40:10.128Z,8.83
2019-04-14T18:43:05.070Z,8.70
2019-04-14T18:45:44.486Z,9.13
2019-04-14T18:48:41.566Z,9.23
2019-04-14T18:51:16.278Z,8.77
2019-04-14T18:53:51.201Z,8.20
2019-04-14T18:56:37.898Z,9.47
2019-04-14T18:59:24.659Z,8.73
2019-04-14T19:01:54.226Z,8.93
2019-04-14T19:04:24.091Z,8.97
2019-04-14T19:06:53.841Z,8.83
2019-04-14T19:09:23.690Z,9.37
2019-04-14T19:12:01.120Z,9.23
2019-04-14T19:14:34.027Z,9.13
2019-04-14T19:17:10.729Z,9.00
2019-04-14T19:19:42.550Z,10.00
2019-04-14T19:22:11.785Z,8.63
2019-04-14T19:24:41.294Z,9.27
2019-04-14T19:27:10.601Z,11.27
2019-04-14T19:29:40.547Z,11.40
2019-04-14T19:32:09.872Z,10.30
2019-04-14T19:34:39.800Z,10.43
2019-04-14T19:37:09.115Z,9.47
2019-04-14T19:39:38.885Z,10.57
2019-04-14T19:42:08.732Z,10.33
2019-04-14T19:44:37.977Z,10.93
2019-04-14T19:47:07.262Z,10.70
2019-04-14T19:49:36.528Z,10.63
2019-04-14T19:52:05.840Z,11.50
2019-04-14T19:54:35.120Z,11.80
2019-04-14T19:57:04.493Z,10.47
2019-04-14T19:59:33.926Z,11.53
2019-04-14T20:02:03.177Z,11.10
2019-04-14T20:04:32.790Z,11.60
2019-04-14T20:07:02.954Z,11.27
2019-04-14T20:09:32.912Z,11.13
2019-04-14T20:12:02.187Z,11.87
2019-04-14T20:14:31.733Z,11.93
2019-04-14T20:17:07.443Z,11.10
2019-04-14T20:19:45.833Z,10.33
2019-04-14T20:22:32.931Z,10.87
2019-04-14T20:25:33.674Z,11.00
2019-04-14T20:28:17.609Z,11.47
2019-04-14T20:30:53.922Z,11.07
2019-04-14T20:33:24.068Z,11.90
2019-04-14T20:35:54.056Z,11.03
2019-04-14T20:38:24.057Z,11.20
2019-04-14T20:40:53.374Z,11.50
2019-04-14T20:43:23.347Z,11.07
2019-04-14T20:45:53.101Z,11.83
2019-04-14T20:48:23.054Z,10.30
2019-04-14T20:50:52.401Z,10.93
2019-04-14T20:53:25.097Z,11.80
2019-04-14T20:55:53.802Z,11.23
2019-04-14T20:58:23.545Z,11.53
2019-04-14T21:00:53.175Z,12.67
2019-04-14T21:03:47.088Z,13.37
2019-04-14T21:06:50.372Z,12.50
2019-04-14T21:09:26.771Z,13.33
2019-04-14T21:12:24.130Z,13.00
2019-04-14T21:15:12.419Z,13.63
2019-04-14T21:17:52.410Z,13.03
2019-04-14T21:20:39.909Z,12.17
2019-04-14T21:23:22.003Z,12.57
2019-04-14T21:26:06.612Z,12.27
2019-04-14T21:28:47.582Z,12.80
2019-04-14T21:31:21.579Z,14.17
2019-04-14T21:34:13.126Z,13.23
2019-04-14T21:37:00.223Z,12.97
2019-04-14T21:39:34.261Z,12.53
2019-04-14T21:42:03.460Z,13.60
2019-04-14T21:44:32.764Z,13.97
2019-04-14T21:47:02.368Z,13.23
2019-04-14T21:49:31.683Z,13.03
2019-04-14T21:52:07.396Z,12.37
2019-04-14T21:54:38.182Z,12.53
2019-04-14T21:57:33.373Z,12.90
2019-04-14T22:00:40.310Z,12.73
2019-04-14T22:03:28.541Z,12.27
2019-04-14T22:06:22.926Z,11.30
2019-04-14T22:08:53.860Z,12.30
2019-04-14T22:11:24.715Z,11.27
2019-04-14T22:13:54.039Z,11.93
2019-04-14T22:16:24.250Z,13.73
2019-04-14T22:18:54.700Z,12.07
2019-04-14T22:21:24.874Z,12.07
2019-04-14T22:24:01.413Z,12.93
2019-04-14T22:26:26.605Z,13.93
2019-04-14T22:28:56.282Z,12.30
2019-04-14T22:31:26.296Z,12.30
2019-04-14T22:33:55.468Z,12.90
2019-04-14T22:36:24.985Z,13.60
2019-04-14T22:38:54.752Z,12.70
2019-04-14T22:41:24.270Z,13.17
2019-04-14T22:43:54.122Z,13.37
2019-04-14T22:46:24.075Z,12.67
2019-04-14T22:48:53.603Z,12.93
2019-04-14T22:51:23.810Z,13.97
2019-04-14T22:53:53.758Z,12.57
2019-04-14T22:56:23.371Z,13.37
2019-04-14T22:58:53.367Z,13.20
2019-04-14T23:01:28.790Z,13.87
2019-04-14T23:04:29.247Z,13.03
2019-04-14T23:07:18.959Z,13.00
2019-04-14T23:09:56.858Z,13.40
2019-04-14T23:12:51.445Z,13.00
2019-04-14T23:15:48.848Z,12.90
2019-04-14T23:18:37.282Z,12.60
2019-04-14T23:21:44.106Z,13.87
2019-04-14T23:24:18.777Z,13.73
2019-04-14T23:26:52.800Z,14.20
2019-04-14T23:29:19.388Z,13.07
2019-04-14T23:31:49.356Z,14.07
2019-04-14T23:34:18.644Z,12.07
2019-04-14T23:36:48.632Z,13.27
2019-04-14T23:39:18.205Z,12.87
2019-04-14T23:41:48.543Z,14.10
2019-04-14T23:44:18.049Z,11.83
2019-04-14T23:46:47.679Z,12.93
2019-04-14T23:49:17.736Z,13.53
2019-04-14T23:51:47.330Z,13.50
2019-04-14T23:54:16.817Z,12.37
2019-04-14T23:56:46.068Z,12.93
2019-04-14T23:59:15.386Z,13.63
